首页
METAR-TAF:

METAR-TAF

机场 :

威靈頓國際機場

惠灵顿, 新西兰

纬度: 41-20S, 经度: 174-48E, 海拔: 12米

当前天气观测

该预报发布于36分钟前的20:00 UTC
风速20节,风向,有时为30节阵风
温度 19°C
湿度 78%
气压 1015 hPa
能见度10公里或以上

METAR: NZWN 262000Z AUTO 36020G30KT 9999 BKN020/// 19/15 Q1015 NOSIG

时间: 09:36 (20:36 UTC)

预报

该预报发布于3小时和35分钟前的17:01 UTC
预报有效从26日的 18点(UTC)到 27日的 18点(UTC)
风速10节,风向
能见度10公里或以上
少量云层高于2000英尺
短暂存在
从 26日的 18点(UTC)到 26日的 20点(UTC)
多云层高于1200英尺
成为
从 26日的 20点(UTC)到 26日的 22点(UTC)
风速15节,风向,有时为25节阵风
成为
从 27日的 12点(UTC)到 27日的 14点(UTC)
风速15节,风向

TAF: NZWN 261701Z 2618/2718 01010KT 9999 FEW020 TEMPO 2618/2620 BKN012 BECMG 2620/2622 35015G25KT BECMG 2712/2714 35015KT

超过4000个机场的气象观测和天气预报(METAR&TAF报告)。

可查询的气象台以黄色和红色小点在地图上表示。

将鼠标移到小点上方,可查看气象台名称。

然后点击查看天气观测和预报。

如需切换地图:点击带黑十字的绿色按钮放大地图;点击带横线的绿色按钮缩小地图;或者点击绿色箭头查看邻近地区的地图。


METAR-TAF: